Terminal Aerodrome Forecast
Issued by NWS

Home | Current Version | Previous Version | Text Only | Print | Product List | Glossary On
Versions: 1 2 3 4 5 6 7 8 9 10 11 12 13 14 15 16
357
FTUS42 TJSJ 262325
TAFJBQ
TAF
TJBQ 262325Z 2700/2724 11008KT P6SM FEW060
     FM271300 24010KT P6SM FEW030 SCT050
     FM272300 11008KT P6SM FEW060
      AMD NOT SKED 2702/2711=

USA.gov is the U.S. government's official web portal to all federal, state and local government web resources and services.